Alderson, West Virginia
Current Conditions -  °F | °C
As of 6:35 PM on Monday 20 Oct 2014 (Local Time) from KLWB Reporting Station
Overcast Overcast  
Wind Chill: 56°   Ceiling: 10000
Heat Index: 56°   Visibility: 10mi
Dew Point: 43°   Wind: 7mph
Humidity: 63%   Direction: 220°SW
Pressure: 29.97"   Gusts: NA
Location:  37.73°N, 80.64°W
Report Text: KLWB 202235Z AUTO 22006KT 10SM OVC100 13/06 A2997 RMK AO2 T01310063
Loading
Personal Weather Stations






























Interactive Weather Map
Tropical Storm Tracking
New forecast layout! Learn more

10-Day Weather Forecast

Advertisements
Track Severe Weather on mobile